Time;durP1;ratioP1;P1;durP2;ratioP2;P2;SDS_P1;SDS_P2;PMS_P1;PMS_P2;Temp;Humidity;BMP_temperature;BMP_pressure;BME280_temperature;BME280_humidity;BME280_pressure;Samples;Min_cycle;Max_cycle;Signal;HPM_P1;HPM_P2
2021/04/11 00:00:27;;;;;;;3.97;1.90;;;9.70;98.40;;;;;;5053354;28;20488;-87
2021/04/11 00:02:53;;;;;;;11.18;3.00;;;9.60;98.00;;;;;;5054823;28;20021;-87
2021/04/11 00:05:21;;;;;;;9.75;3.92;;;9.60;98.70;;;;;;5053275;28;20075;-87
2021/04/11 00:07:47;;;;;;;12.13;4.45;;;9.60;98.70;;;;;;5054423;28;20384;-87
2021/04/11 00:10:25;;;;;;;8.25;4.20;;;9.60;98.70;;;;;;5054717;28;20105;-87
2021/04/11 00:12:51;;;;;;;9.93;4.18;;;9.40;99.40;;;;;;5054332;28;20087;-88
2021/04/11 00:15:18;;;;;;;6.32;3.60;;;9.20;99.90;;;;;;5053039;28;20419;-87
2021/04/11 00:17:43;;;;;;;4.70;2.92;;;9.20;99.90;;;;;;5052876;28;20032;-87
2021/04/11 00:20:10;;;;;;;7.43;2.60;;;9.10;99.90;;;;;;5052946;28;20469;-87
2021/04/11 00:22:36;;;;;;;2.70;2.00;;;9.20;99.90;;;;;;5053696;28;20032;-87
2021/04/11 00:25:07;;;;;;;4.38;2.10;;;9.10;99.90;;;;;;5052879;28;20021;-87
2021/04/11 00:27:32;;;;;;;5.38;2.13;;;9.00;99.90;;;;;;5053339;28;20032;-87
2021/04/11 00:29:58;;;;;;;4.80;2.20;;;9.10;99.90;;;;;;5054213;28;20029;-87
2021/04/11 00:32:23;;;;;;;3.67;2.30;;;9.30;99.90;;;;;;5053160;28;20032;-87
2021/04/11 00:34:49;;;;;;;4.82;2.75;;;9.30;99.90;;;;;;5054458;28;20025;-87
2021/04/11 00:37:15;;;;;;;5.65;2.67;;;9.30;99.90;;;;;;5052143;28;20024;-87
2021/04/11 00:39:41;;;;;;;4.75;2.53;;;9.10;99.90;;;;;;5016261;28;20034;-87
2021/04/11 00:42:14;;;;;;;5.72;2.35;;;8.90;99.90;;;;;;5033946;28;20018;-87
2021/04/11 00:44:40;;;;;;;6.18;2.47;;;9.00;99.90;;;;;;5016226;28;20029;-87
2021/04/11 00:47:06;;;;;;;5.90;2.17;;;9.00;99.90;;;;;;5033756;28;20033;-87
2021/04/11 00:49:35;;;;;;;4.18;2.15;;;9.00;99.90;;;;;;5033790;28;20078;-87
2021/04/11 00:52:03;;;;;;;4.65;2.20;;;9.10;99.90;;;;;;5016011;28;20032;-87
2021/04/11 00:54:29;;;;;;;5.75;2.45;;;9.10;99.90;;;;;;5033667;28;20021;-87
2021/04/11 00:56:55;;;;;;;4.28;2.13;;;9.10;99.90;;;;;;5033631;28;20381;-87
2021/04/11 00:59:21;;;;;;;3.50;1.90;;;9.20;99.90;;;;;;5015909;28;20021;-87
2021/04/11 01:01:47;;;;;;;5.93;2.25;;;9.10;99.90;;;;;;5033962;28;20026;-87
2021/04/11 01:04:15;;;;;;;4.88;1.80;;;9.10;99.90;;;;;;5015843;28;20022;-87
2021/04/11 01:06:46;;;;;;;3.47;1.80;;;9.10;99.90;;;;;;5015844;28;20031;-87
2021/04/11 01:09:18;;;;;;;3.45;2.00;;;9.20;99.90;;;;;;5015847;28;20028;-87
2021/04/11 01:11:44;;;;;;;4.50;2.10;;;9.10;99.90;;;;;;5033539;28;20025;-87
2021/04/11 01:14:10;;;;;;;6.15;2.30;;;9.10;99.90;;;;;;5015839;28;20109;-87
2021/04/11 01:16:38;;;;;;;5.75;2.20;;;9.00;99.90;;;;;;5015619;28;20075;-88
2021/04/11 01:19:07;;;;;;;6.55;2.30;;;9.00;99.90;;;;;;5033457;28;20022;-87
2021/04/11 01:22:11;;;;;;;3.03;1.85;;;8.80;99.90;;;;;;5015672;28;20143;-87
2021/04/11 01:24:55;;;;;;;4.80;2.17;;;8.80;99.90;;;;;;5013585;28;20030;-87
2021/04/11 01:27:36;;;;;;;2.78;2.05;;;8.70;99.90;;;;;;5033386;28;20030;-88
2021/04/11 01:30:29;;;;;;;4.30;2.53;;;8.80;99.90;;;;;;5015664;28;20029;-87
2021/04/11 01:32:56;;;;;;;5.30;2.22;;;8.80;99.90;;;;;;5031598;28;20049;-87
2021/04/11 01:35:25;;;;;;;6.78;2.28;;;8.70;99.90;;;;;;5016817;28;20025;-87
2021/04/11 01:37:53;;;;;;;5.38;2.38;;;8.80;99.90;;;;;;5039210;28;20103;-87
2021/04/11 01:40:46;;;;;;;3.30;2.17;;;8.90;99.90;;;;;;5037267;28;20021;-87
2021/04/11 01:43:12;;;;;;;4.00;2.25;;;8.90;99.90;;;;;;5014438;28;20065;-87
2021/04/11 01:45:41;;;;;;;6.57;2.00;;;8.80;99.90;;;;;;5037210;28;20032;-87
2021/04/11 01:48:07;;;;;;;3.63;1.90;;;8.70;99.90;;;;;;5019320;28;20025;-87
2021/04/11 01:50:35;;;;;;;6.32;2.22;;;8.80;99.90;;;;;;5036995;28;20116;-88
2021/04/11 01:53:01;;;;;;;5.60;2.38;;;8.80;99.90;;;;;;5037097;28;20025;-87
2021/04/11 01:55:28;;;;;;;4.38;2.30;;;8.90;99.90;;;;;;5037037;28;20041;-87
2021/04/11 01:57:55;;;;;;;3.55;2.10;;;8.90;99.90;;;;;;5019113;28;20108;-87
2021/04/11 02:00:33;;;;;;;5.88;2.00;;;8.80;99.90;;;;;;5019109;28;20037;-87
2021/04/11 02:03:01;;;;;;;3.42;2.00;;;8.80;99.90;;;;;;5037203;28;20076;-88
2021/04/11 02:05:27;;;;;;;4.00;2.08;;;8.80;99.90;;;;;;5019092;28;20378;-87
2021/04/11 02:07:55;;;;;;;5.00;1.92;;;8.80;99.90;;;;;;5036736;28;20043;-87
2021/04/11 02:10:29;;;;;;;2.58;1.67;;;8.90;99.90;;;;;;5018925;28;20046;-87
2021/04/11 02:12:56;;;;;;;2.75;1.80;;;9.10;99.90;;;;;;5019196;28;20454;-87
2021/04/11 02:15:29;;;;;;;4.25;1.63;;;9.10;99.90;;;;;;5036917;28;20057;-87
2021/04/11 02:17:56;;;;;;;4.65;1.67;;;9.30;99.90;;;;;;5037006;28;20381;-87
2021/04/11 02:20:24;;;;;;;4.55;1.85;;;9.40;99.90;;;;;;5019270;28;20469;-87
2021/04/11 02:22:50;;;;;;;3.22;1.80;;;9.40;99.90;;;;;;5019172;28;20068;-87
2021/04/11 02:25:20;;;;;;;11.05;2.13;;;9.30;99.90;;;;;;5036879;28;20100;-87
2021/04/11 02:27:47;;;;;;;4.20;1.70;;;9.30;99.90;;;;;;5018951;28;20469;-87
2021/04/11 02:30:17;;;;;;;4.30;1.92;;;9.30;99.90;;;;;;5018946;28;20384;-87
2021/04/11 02:32:42;;;;;;;4.05;1.70;;;9.30;99.90;;;;;;5018838;28;20025;-87
2021/04/11 02:35:13;;;;;;;2.30;1.65;;;9.30;99.90;;;;;;5018884;28;20028;-88
2021/04/11 02:37:41;;;;;;;2.97;1.88;;;9.20;99.90;;;;;;5018583;28;20076;-87
2021/04/11 02:40:10;;;;;;;2.83;1.27;;;9.30;99.90;;;;;;5017815;28;20031;-87
2021/04/11 02:42:36;;;;;;;3.58;1.60;;;9.40;99.90;;;;;;5035382;28;20021;-87
2021/04/11 02:45:13;;;;;;;10.30;1.80;;;9.50;99.90;;;;;;5018099;28;20033;-87
2021/04/11 02:47:38;;;;;;;2.75;1.80;;;9.60;99.90;;;;;;5017390;28;20436;-87
2021/04/11 02:50:06;;;;;;;2.47;1.40;;;9.60;99.90;;;;;;5035416;28;20029;-88
2021/04/11 02:52:37;;;;;;;3.13;1.35;;;9.70;99.90;;;;;;5017626;28;20029;-85
2021/04/11 02:55:04;;;;;;;3.22;1.75;;;9.70;99.90;;;;;;5017740;28;20022;-88
2021/04/11 02:57:30;;;;;;;4.13;1.40;;;9.60;99.90;;;;;;5018090;28;20489;-87
2021/04/11 02:59:57;;;;;;;2.58;1.73;;;9.60;99.90;;;;;;5018118;28;20033;-87
2021/04/11 03:02:23;;;;;;;2.45;1.27;;;9.50;99.90;;;;;;5017514;28;20033;-87
2021/04/11 03:04:51;;;;;;;1.88;1.13;;;9.50;99.90;;;;;;5035169;28;20025;-87
2021/04/11 03:07:30;;;;;;;2.42;1.27;;;9.50;99.90;;;;;;5017689;28;20029;-86
2021/04/11 03:10:05;;;;;;;2.47;1.27;;;9.50;99.90;;;;;;5017352;28;20507;-88
2021/04/11 03:12:31;;;;;;;4.90;1.65;;;9.50;99.90;;;;;;5017207;28;20030;-88
2021/04/11 03:14:58;;;;;;;3.72;1.40;;;9.60;99.90;;;;;;5017128;28;20034;-87
2021/04/11 03:17:25;;;;;;;4.47;1.52;;;9.50;99.90;;;;;;5034700;28;20022;-88
2021/04/11 03:20:04;;;;;;;3.38;1.70;;;9.50;99.90;;;;;;5035261;28;20473;-87
2021/04/11 03:22:30;;;;;;;6.63;1.60;;;9.60;99.90;;;;;;5017291;28;20117;-88
2021/04/11 03:24:56;;;;;;;2.42;1.40;;;9.60;99.90;;;;;;5017163;28;20052;-88
2021/04/11 03:27:34;;;;;;;4.85;1.98;;;9.60;99.90;;;;;;5017161;28;20033;-87
2021/04/11 03:30:15;;;;;;;3.33;1.83;;;9.70;99.90;;;;;;5017094;28;20496;-87
2021/04/11 03:32:49;;;;;;;2.65;1.60;;;9.70;99.90;;;;;;5016863;28;20036;-87
2021/04/11 03:35:20;;;;;;;2.50;1.57;;;9.70;99.90;;;;;;5017191;28;20022;-87
2021/04/11 03:37:47;;;;;;;3.50;1.60;;;9.70;99.90;;;;;;4994288;28;649297;-87
2021/04/11 03:40:17;;;;;;;2.72;1.80;;;9.70;99.90;;;;;;5035696;28;20474;-87
2021/04/11 03:42:46;;;;;;;3.85;1.60;;;9.70;99.90;;;;;;5017695;28;20112;-87
2021/04/11 03:45:13;;;;;;;4.35;1.52;;;9.60;99.90;;;;;;5035389;28;20112;-88
2021/04/11 03:47:47;;;;;;;4.45;1.60;;;9.60;99.90;;;;;;5017435;28;20025;-87
2021/04/11 03:50:18;;;;;;;1.80;1.30;;;9.60;99.90;;;;;;5017534;28;20025;-88
2021/04/11 03:52:56;;;;;;;2.95;1.58;;;9.60;99.90;;;;;;5017619;28;20389;-87
2021/04/11 03:55:24;;;;;;;3.00;1.63;;;9.60;99.90;;;;;;5035269;28;20035;-87
2021/04/11 03:57:55;;;;;;;2.28;1.45;;;9.60;99.90;;;;;;5016651;28;20025;-87
2021/04/11 04:00:28;;;;;;;3.63;1.58;;;9.50;99.90;;;;;;5017591;28;20505;-87
2021/04/11 04:02:57;;;;;;;5.82;1.83;;;9.50;99.90;;;;;;5017604;28;20031;-87
2021/04/11 04:05:27;;;;;;;5.20;1.70;;;9.50;99.90;;;;;;5035373;28;20037;-87
2021/04/11 04:07:58;;;;;;;6.40;2.38;;;9.40;99.90;;;;;;5035172;28;20047;-88
2021/04/11 04:10:31;;;;;;;4.68;1.90;;;9.40;99.90;;;;;;5017175;28;20053;-87
2021/04/11 04:13:06;;;;;;;2.30;1.50;;;9.30;99.90;;;;;;5016957;28;20025;-87
2021/04/11 04:15:40;;;;;;;2.63;1.40;;;9.30;99.90;;;;;;5017489;28;20033;-87
2021/04/11 04:18:12;;;;;;;3.63;1.60;;;9.50;99.90;;;;;;5017089;28;20075;-87
2021/04/11 04:20:42;;;;;;;2.30;1.40;;;9.40;99.90;;;;;;5017076;28;20040;-87
2021/04/11 04:23:17;;;;;;;3.40;1.88;;;9.40;99.90;;;;;;5017822;28;20376;-87
2021/04/11 04:25:53;;;;;;;7.10;3.05;;;9.40;99.90;;;;;;5016977;28;20029;-87
2021/04/11 04:28:18;;;;;;;3.63;1.70;;;9.30;99.90;;;;;;5017212;28;20021;-87
2021/04/11 04:31:02;;;;;;;3.92;1.73;;;9.30;99.90;;;;;;5016988;28;20037;-87
2021/04/11 04:33:46;;;;;;;2.92;1.40;;;9.40;99.90;;;;;;5034623;28;20033;-87
2021/04/11 04:36:17;;;;;;;3.95;1.48;;;9.40;99.90;;;;;;5016940;28;20025;-87
2021/04/11 04:39:06;;;;;;;2.25;1.30;;;9.50;99.90;;;;;;5034149;28;20556;-87
2021/04/11 04:41:36;;;;;;;4.65;1.70;;;9.50;99.90;;;;;;5016746;28;20112;-87
2021/04/11 04:44:20;;;;;;;1.33;1.23;;;9.50;99.90;;;;;;5034282;28;20026;-87
2021/04/11 04:46:54;;;;;;;4.30;1.65;;;9.50;99.90;;;;;;5016784;28;20067;-87
2021/04/11 04:49:22;;;;;;;3.67;1.40;;;9.60;99.90;;;;;;5016775;28;20032;-87
2021/04/11 04:51:59;;;;;;;2.58;1.35;;;9.60;99.90;;;;;;5016785;28;20021;-87
2021/04/11 04:54:49;;;;;;;4.35;1.40;;;9.60;99.90;;;;;;5016636;28;20477;-87
2021/04/11 04:57:33;;;;;;;3.83;1.40;;;9.60;99.90;;;;;;5016611;28;20080;-87
2021/04/11 05:00:09;;;;;;;3.78;1.90;;;9.70;99.90;;;;;;5034203;28;20017;-87
2021/04/11 05:02:58;;;;;;;5.32;1.52;;;9.70;99.90;;;;;;5016633;28;20029;-87
2021/04/11 05:05:26;;;;;;;2.38;1.30;;;9.60;99.90;;;;;;5016450;28;20021;-87
2021/04/11 05:08:23;;;;;;;4.15;1.48;;;9.60;99.90;;;;;;5016363;28;20029;-87
2021/04/11 05:10:58;;;;;;;3.42;1.40;;;9.50;99.90;;;;;;5016127;28;20388;-87
2021/04/11 05:13:24;;;;;;;;;;;9.50;99.90;;;;;;5034313;28;20033;-88
2021/04/11 05:16:14;;;;;;;3.55;1.77;;;9.40;99.90;;;;;;5016386;28;19905;-87
2021/04/11 05:18:44;;;;;;;3.25;1.60;;;9.40;99.90;;;;;;5016678;28;20083;-87
2021/04/11 05:21:16;;;;;;;4.60;1.55;;;9.50;99.90;;;;;;5034619;28;20022;-87
2021/04/11 05:23:49;;;;;;;2.08;1.25;;;9.60;99.90;;;;;;5034503;28;20134;-87
2021/04/11 05:26:21;;;;;;;3.53;1.38;;;9.60;99.90;;;;;;5016383;28;20021;-87
2021/04/11 05:28:57;;;;;;;3.50;1.63;;;9.70;99.90;;;;;;5016318;28;20030;-87
2021/04/11 05:31:30;;;;;;;1.90;1.23;;;9.70;99.90;;;;;;5033929;28;20028;-87
2021/04/11 05:33:57;;;;;;;6.93;4.00;;;9.70;99.90;;;;;;5016040;28;20033;-87
2021/04/11 05:36:28;;;;;;;7.38;3.55;;;9.60;99.90;;;;;;5033994;28;20026;-88
2021/04/11 05:39:17;;;;;;;5.25;3.47;;;9.60;99.90;;;;;;5035684;28;20041;-87
2021/04/11 05:41:53;;;;;;;4.25;2.17;;;9.60;99.90;;;;;;5054138;28;20450;-87
2021/04/11 05:44:29;;;;;;;5.03;3.05;;;9.60;99.90;;;;;;5052519;28;20021;-88
2021/04/11 05:47:24;;;;;;;6.00;2.10;;;9.50;99.90;;;;;;5052358;28;20029;-87
2021/04/11 05:50:24;;;;;;;6.18;2.17;;;9.60;99.90;;;;;;5052877;28;20025;-87
2021/04/11 05:53:18;;;;;;;6.63;2.65;;;9.70;99.90;;;;;;4966666;28;20065;-88
2021/04/11 05:55:49;;;;;;;2.45;1.85;;;9.70;99.90;;;;;;5053696;28;20075;-87
2021/04/11 05:58:19;;;;;;;3.92;2.30;;;9.70;99.90;;;;;;5052343;28;20538;-87
2021/04/11 06:01:07;;;;;;;6.63;3.72;;;9.80;99.90;;;;;;5052346;28;20358;-87
2021/04/11 06:03:37;;;;;;;5.82;3.60;;;9.80;99.90;;;;;;5052259;28;20017;-88
2021/04/11 06:06:44;;;;;;;4.95;2.92;;;9.80;99.90;;;;;;5052228;28;20032;-87
2021/04/11 06:09:35;;;;;;;2.60;2.03;;;9.90;99.90;;;;;;5048045;28;20090;-88
2021/04/11 06:12:06;;;;;;;6.18;1.67;;;9.90;99.90;;;;;;5052106;28;20021;-87
2021/04/11 06:14:44;;;;;;;4.47;2.00;;;9.90;99.90;;;;;;5052094;28;20029;-87
2021/04/11 06:17:12;;;;;;;6.10;2.08;;;10.00;99.90;;;;;;5052174;28;20380;-88
2021/04/11 06:19:42;;;;;;;5.00;1.92;;;10.20;99.90;;;;;;5051957;28;20055;-88
2021/04/11 06:22:24;;;;;;;5.25;2.03;;;10.30;99.90;;;;;;5054459;28;20070;-87
2021/04/11 06:25:13;;;;;;;5.95;2.28;;;10.30;99.90;;;;;;5055974;28;20500;-88
2021/04/11 06:27:50;;;;;;;3.25;1.40;;;10.40;99.90;;;;;;5055926;28;20025;-88
2021/04/11 06:30:29;;;;;;;3.03;1.40;;;10.60;99.90;;;;;;5055930;28;20123;-88
2021/04/11 06:33:06;;;;;;;4.45;1.50;;;10.80;99.90;;;;;;5055777;28;20025;-86
2021/04/11 06:35:50;;;;;;;3.20;1.38;;;10.90;99.90;;;;;;5055503;28;20063;-86
2021/04/11 06:38:21;;;;;;;5.55;1.60;;;10.90;99.90;;;;;;5038376;28;20044;-86
2021/04/11 06:40:53;;;;;;;4.22;1.30;;;11.10;99.90;;;;;;5055449;28;20057;-86
2021/04/11 06:43:45;;;;;;;2.67;1.50;;;11.20;99.90;;;;;;5055218;28;20551;-86
2021/04/11 06:46:32;;;;;;;3.67;1.50;;;11.30;99.90;;;;;;5052460;28;20052;-86
2021/04/11 06:49:14;;;;;;;3.35;1.50;;;11.40;99.90;;;;;;5055182;28;20025;-86
2021/04/11 06:52:11;;;;;;;3.55;1.35;;;11.60;99.90;;;;;;5055129;28;20029;-86
2021/04/11 06:54:52;;;;;;;4.53;1.40;;;11.70;99.90;;;;;;5055039;28;20079;-87
2021/04/11 06:57:55;;;;;;;3.50;1.23;;;11.80;99.90;;;;;;5055033;28;20437;-84
2021/04/11 07:00:26;;;;;;;3.65;1.30;;;12.00;99.90;;;;;;5055056;28;20021;-86
2021/04/11 07:03:13;;;;;;;4.55;1.70;;;12.10;99.90;;;;;;5054999;28;20167;-87
2021/04/11 07:06:16;;;;;;;3.28;1.40;;;12.20;99.90;;;;;;5054923;28;20028;-86
2021/04/11 07:09:00;;;;;;;3.03;1.15;;;12.30;99.90;;;;;;5054966;28;20091;-85
2021/04/11 07:11:32;;;;;;;3.25;1.42;;;12.50;99.90;;;;;;5054763;28;20025;-85
2021/04/11 07:14:06;;;;;;;4.40;1.17;;;12.70;99.90;;;;;;5054926;28;20485;-86
2021/04/11 07:17:08;;;;;;;4.32;1.35;;;12.90;99.90;;;;;;5054846;28;20031;-86
2021/04/11 07:19:37;;;;;;;2.50;1.38;;;13.10;99.90;;;;;;5056250;28;20100;-86
2021/04/11 07:22:26;;;;;;;2.10;1.15;;;13.20;99.90;;;;;;5054783;28;20029;-87
2021/04/11 07:25:04;;;;;;;4.40;1.10;;;13.40;99.90;;;;;;5054508;28;20032;-86
2021/04/11 07:27:50;;;;;;;3.55;1.40;;;13.50;99.90;;;;;;5054487;28;20049;-88
2021/04/11 07:30:31;;;;;;;5.40;1.00;;;13.70;99.90;;;;;;5054585;28;20167;-84
2021/04/11 07:33:24;;;;;;;3.47;1.10;;;13.90;99.80;;;;;;5054450;28;20461;-85
2021/04/11 07:36:27;;;;;;;3.42;1.13;;;14.10;98.80;;;;;;5054626;28;20025;-87
2021/04/11 07:39:04;;;;;;;1.95;1.13;;;14.30;98.00;;;;;;5054007;28;20155;-86
2021/04/11 07:42:07;;;;;;;4.65;1.25;;;14.60;97.40;;;;;;5055428;28;20140;-85
2021/04/11 07:44:42;;;;;;;6.15;1.23;;;14.70;98.20;;;;;;5054599;28;20059;-87
2021/04/11 07:47:27;;;;;;;3.70;0.98;;;14.80;97.30;;;;;;5054277;28;20021;-86
2021/04/11 07:49:55;;;;;;;3.28;0.63;;;14.90;97.00;;;;;;5055408;28;20376;-84
2021/04/11 07:52:43;;;;;;;3.40;0.65;;;14.80;96.60;;;;;;5054120;28;20059;-85
2021/04/11 07:55:19;;;;;;;2.00;1.13;;;14.70;96.70;;;;;;5054012;28;20028;-83
2021/04/11 07:58:22;;;;;;;3.08;0.80;;;14.50;97.10;;;;;;5054008;28;20370;-84
2021/04/11 08:01:16;;;;;;;2.20;1.08;;;14.30;97.10;;;;;;5054073;28;20017;-88
2021/04/11 08:04:05;;;;;;;2.10;0.90;;;14.30;97.10;;;;;;5054476;28;20048;-83
2021/04/11 08:06:53;;;;;;;1.75;0.93;;;14.30;97.00;;;;;;5054761;28;20016;-89
2021/04/11 08:09:48;;;;;;;4.30;0.80;;;14.40;96.80;;;;;;5055486;28;20021;-88
2021/04/11 08:12:29;;;;;;;4.93;0.98;;;14.50;96.80;;;;;;4967920;28;20034;-85
2021/04/11 08:15:26;;;;;;;1.77;0.73;;;14.60;96.70;;;;;;5053254;28;20024;-88
2021/04/11 08:18:04;;;;;;;2.22;1.00;;;14.70;96.50;;;;;;5053190;28;20540;-87
2021/04/11 08:20:51;;;;;;;3.35;0.90;;;14.60;95.60;;;;;;5053141;28;20025;-85
2021/04/11 08:23:51;;;;;;;4.28;1.00;;;14.50;96.30;;;;;;5053097;28;20024;-86
2021/04/11 08:26:53;;;;;;;3.85;1.20;;;14.70;96.20;;;;;;5054433;28;20488;-87
2021/04/11 08:29:37;;;;;;;5.28;1.10;;;14.90;95.70;;;;;;5053000;28;20052;-87
2021/04/11 08:32:40;;;;;;;2.53;0.73;;;14.80;96.00;;;;;;5054227;28;20384;-87
2021/04/11 08:35:56;;;;;;;4.53;1.10;;;14.80;95.80;;;;;;5054099;28;20022;-87
2021/04/11 08:38:50;;;;;;;1.80;0.73;;;14.90;96.30;;;;;;5052312;28;20059;-85
2021/04/11 08:41:41;;;;;;;4.72;1.30;;;14.80;95.30;;;;;;5052558;28;20481;-88
2021/04/11 08:44:24;;;;;;;5.40;1.67;;;14.90;95.40;;;;;;5053843;28;20071;-86
2021/04/11 08:47:26;;;;;;;3.38;1.05;;;14.80;95.30;;;;;;5052604;28;20023;-86
2021/04/11 08:50:06;;;;;;;3.20;1.30;;;15.00;95.70;;;;;;5036747;28;20033;-86
2021/04/11 08:53:04;;;;;;;2.70;1.00;;;15.00;95.30;;;;;;5053801;28;20484;-86
2021/04/11 08:55:41;;;;;;;5.28;0.90;;;15.10;95.20;;;;;;5052536;28;20029;-86
2021/04/11 08:58:31;;;;;;;5.07;1.30;;;15.10;95.20;;;;;;5052276;28;20040;-86
2021/04/11 09:01:14;;;;;;;3.75;0.98;;;15.20;94.80;;;;;;5052413;28;20025;-87
2021/04/11 09:03:57;;;;;;;2.42;0.90;;;15.10;95.50;;;;;;5053461;28;20025;-86
2021/04/11 09:06:40;;;;;;;4.25;1.05;;;15.10;95.30;;;;;;5052349;28;20618;-86
2021/04/11 09:09:27;;;;;;;2.65;1.25;;;15.10;95.40;;;;;;5052289;28;20025;-88
2021/04/11 09:12:37;;;;;;;2.35;1.05;;;15.00;95.30;;;;;;5052191;28;20032;-85
2021/04/11 09:15:29;;;;;;;1.95;0.98;;;15.00;95.80;;;;;;5052201;28;20065;-88
2021/04/11 09:18:16;;;;;;;3.88;1.27;;;15.10;95.80;;;;;;5052087;28;20048;-87
2021/04/11 09:20:49;;;;;;;5.65;1.17;;;15.20;95.90;;;;;;5053378;28;20431;-85
2021/04/11 09:23:55;;;;;;;5.40;1.08;;;15.60;95.40;;;;;;5053683;28;20028;-86
2021/04/11 09:26:48;;;;;;;5.93;1.38;;;16.00;93.70;;;;;;5052041;28;20021;-87
2021/04/11 09:29:32;;;;;;;2.35;0.88;;;16.20;93.80;;;;;;5052045;28;20028;-85
2021/04/11 09:32:16;;;;;;;3.15;1.08;;;16.40;93.20;;;;;;5052131;28;20048;-86
2021/04/11 09:35:00;;;;;;;2.22;0.88;;;16.40;92.70;;;;;;5052019;28;20083;-87
2021/04/11 09:37:45;;;;;;;4.88;0.80;;;16.70;92.40;;;;;;5051958;28;20029;-85
2021/04/11 09:40:36;;;;;;;3.00;1.35;;;17.30;91.90;;;;;;5051948;28;20492;-86
2021/04/11 09:43:11;;;;;;;2.42;1.00;;;17.30;91.20;;;;;;5053197;28;20079;-87
2021/04/11 09:46:00;;;;;;;2.35;0.80;;;17.30;91.50;;;;;;5051929;28;20029;-86
2021/04/11 09:48:53;;;;;;;2.13;1.10;;;17.10;90.80;;;;;;5051810;28;20029;-86
2021/04/11 09:51:30;;;;;;;1.95;1.13;;;17.10;90.30;;;;;;5051810;28;20029;-85
2021/04/11 09:54:35;;;;;;;4.65;1.27;;;17.60;91.50;;;;;;5053133;28;20037;-86
2021/04/11 09:57:27;;;;;;;4.00;1.08;;;18.20;89.30;;;;;;5055350;28;20025;-88
2021/04/11 09:59:56;;;;;;;4.88;1.30;;;18.70;88.40;;;;;;5018164;28;20021;-86
2021/04/11 10:02:47;;;;;;;4.10;0.80;;;18.60;86.60;;;;;;5055698;28;20116;-86
2021/04/11 10:05:52;;;;;;;5.32;1.10;;;18.80;86.30;;;;;;5055620;28;20032;-86
2021/04/11 10:08:35;;;;;;;3.42;1.20;;;18.20;84.60;;;;;;5055542;28;20041;-87
2021/04/11 10:11:38;;;;;;;3.97;1.13;;;17.90;87.10;;;;;;5055510;28;20397;-86
2021/04/11 10:14:36;;;;;;;3.55;1.10;;;17.40;87.90;;;;;;5055432;28;20024;-85
2021/04/11 10:17:24;;;;;;;3.67;1.13;;;17.40;87.60;;;;;;5055280;28;20036;-86
2021/04/11 10:20:14;;;;;;;2.88;1.05;;;17.10;88.80;;;;;;5056634;28;20091;-86
2021/04/11 10:22:58;;;;;;;2.67;1.08;;;17.10;89.80;;;;;;5055647;28;20028;-88
2021/04/11 10:25:40;;;;;;;3.33;0.70;;;17.10;89.10;;;;;;5055348;28;20021;-88
2021/04/11 10:28:39;;;;;;;1.70;0.98;;;17.00;89.60;;;;;;5056441;28;20025;-87
2021/04/11 10:31:13;;;;;;;2.97;0.90;;;17.00;88.70;;;;;;5055236;28;20361;-87
2021/04/11 10:33:39;;;;;;;;;;;16.90;89.00;;;;;;5055545;28;20477;-86
2021/04/11 10:36:12;;;;;;;2.63;0.98;;;17.00;90.20;;;;;;5056368;28;19912;-88
2021/04/11 10:38:56;;;;;;;7.25;1.35;;;17.20;88.70;;;;;;5054793;28;20484;-87
2021/04/11 10:41:31;;;;;;;7.38;1.25;;;17.50;88.30;;;;;;5056286;28;20365;-87
2021/04/11 10:44:18;;;;;;;3.55;0.90;;;17.80;88.20;;;;;;5054907;28;20079;-88
2021/04/11 10:47:02;;;;;;;3.72;0.90;;;17.80;86.70;;;;;;5054814;28;20025;-89
2021/04/11 10:49:42;;;;;;;3.50;0.98;;;17.60;88.50;;;;;;5054960;28;20451;-88
2021/04/11 10:52:19;;;;;;;2.33;1.05;;;17.40;88.20;;;;;;5054731;28;20017;-88
2021/04/11 10:55:19;;;;;;;2.40;0.93;;;17.30;88.50;;;;;;5055012;28;20112;-87
2021/04/11 10:58:06;;;;;;;3.28;1.15;;;17.20;88.50;;;;;;5054548;28;20029;-87
2021/04/11 11:00:43;;;;;;;3.60;1.00;;;17.30;88.80;;;;;;5054703;28;20036;-85
2021/04/11 11:03:27;;;;;;;2.08;0.98;;;17.80;87.70;;;;;;5054676;28;20027;-88
2021/04/11 11:06:25;;;;;;;3.30;0.98;;;18.50;86.90;;;;;;5056041;28;20456;-87
2021/04/11 11:09:15;;;;;;;4.70;1.15;;;18.90;84.30;;;;;;5000535;28;20116;-86
2021/04/11 11:12:00;;;;;;;2.83;1.13;;;18.70;84.50;;;;;;5055996;28;20464;-87
2021/04/11 11:14:37;;;;;;;5.07;1.10;;;18.70;83.60;;;;;;5054367;28;20178;-87
2021/04/11 11:17:28;;;;;;;3.50;1.00;;;19.80;81.30;;;;;;5054171;28;20119;-87
2021/04/11 11:20:21;;;;;;;3.25;1.20;;;20.30;79.50;;;;;;5054231;28;20112;-88
2021/04/11 11:23:25;;;;;;;2.38;1.17;;;20.00;77.70;;;;;;5054194;28;20075;-83
2021/04/11 11:26:05;;;;;;;5.57;1.25;;;18.90;80.00;;;;;;5004282;28;20057;-88
2021/04/11 11:28:53;;;;;;;6.13;1.35;;;18.80;82.20;;;;;;5054327;28;20468;-85
2021/04/11 11:31:34;;;;;;;4.38;1.02;;;18.80;81.50;;;;;;5053961;28;20052;-85
2021/04/11 11:34:05;;;;;;;1.98;1.23;;;19.90;80.40;;;;;;5053982;28;20033;-86
2021/04/11 11:36:40;;;;;;;5.72;1.23;;;20.80;77.70;;;;;;5053923;28;20116;-86
2021/04/11 11:39:26;;;;;;;2.33;1.17;;;20.40;76.70;;;;;;5043749;28;20048;-86
2021/04/11 11:41:52;;;;;;;3.53;1.27;;;20.50;75.90;;;;;;5017408;28;20029;-86
2021/04/11 11:44:32;;;;;;;2.83;1.05;;;20.40;76.70;;;;;;5035642;28;20037;-83
2021/04/11 11:47:13;;;;;;;6.28;1.17;;;20.50;75.90;;;;;;5017400;28;20033;-85
2021/04/11 11:49:48;;;;;;;6.60;1.52;;;21.50;73.00;;;;;;5017294;28;20116;-84
2021/04/11 11:52:22;;;;;;;2.92;1.00;;;21.70;72.40;;;;;;5034906;28;20021;-84
2021/04/11 11:55:03;;;;;;;2.85;0.90;;;22.20;70.30;;;;;;5017137;28;20473;-85
2021/04/11 11:57:38;;;;;;;2.00;0.90;;;22.10;70.10;;;;;;5017053;28;20033;-86
2021/04/11 12:00:13;;;;;;;3.33;1.13;;;21.70;70.00;;;;;;5017050;28;20022;-88
2021/04/11 12:03:03;;;;;;;2.75;0.90;;;20.70;71.70;;;;;;5034721;28;20021;-87
2021/04/11 12:05:58;;;;;;;3.10;1.20;;;20.30;73.20;;;;;;5016889;28;20029;-87
2021/04/11 12:08:58;;;;;;;4.07;1.10;;;20.50;73.60;;;;;;5033349;28;20025;-86
2021/04/11 12:11:36;;;;;;;2.35;1.00;;;20.10;74.00;;;;;;5019028;28;20119;-87
2021/04/11 12:14:24;;;;;;;2.75;0.80;;;19.40;74.50;;;;;;5016886;28;20484;-84
2021/04/11 12:17:21;;;;;;;4.50;0.95;;;18.80;77.10;;;;;;5016681;28;20060;-87
2021/04/11 12:19:56;;;;;;;3.13;1.05;;;18.80;77.40;;;;;;5034118;28;20025;-86
2021/04/11 12:22:45;;;;;;;2.92;0.80;;;18.90;78.00;;;;;;5034670;28;20033;-85
2021/04/11 12:25:24;;;;;;;2.78;0.73;;;18.70;77.10;;;;;;5016648;28;20362;-86
2021/04/11 12:27:50;;;;;;;2.63;0.63;;;18.80;79.00;;;;;;5034291;28;20108;-88
2021/04/11 12:30:27;;;;;;;3.38;0.98;;;18.90;77.20;;;;;;5016466;28;20064;-87
2021/04/11 12:32:57;;;;;;;1.63;0.70;;;19.10;78.30;;;;;;5034146;28;20026;-85
2021/04/11 12:35:31;;;;;;;2.55;0.90;;;19.00;76.30;;;;;;5016375;28;20033;-84
2021/04/11 12:38:06;;;;;;;;;;;19.00;76.60;;;;;;5016601;28;20434;-85
2021/04/11 12:40:45;;;;;;;2.75;0.98;;;18.80;76.80;;;;;;5016386;28;19999;-83
2021/04/11 12:43:36;;;;;;;3.30;0.85;;;18.60;78.10;;;;;;5016321;28;20021;-86
2021/04/11 12:46:20;;;;;;;2.85;0.65;;;18.80;79.00;;;;;;5016134;28;20083;-87
2021/04/11 12:49:15;;;;;;;2.53;0.65;;;19.10;78.00;;;;;;5016581;28;20030;-86
2021/04/11 12:51:48;;;;;;;1.98;0.73;;;21.10;74.60;;;;;;5016347;28;20035;-84
2021/04/11 12:54:38;;;;;;;1.97;0.60;;;22.50;70.30;;;;;;5033883;28;20067;-86
2021/04/11 12:57:10;;;;;;;3.25;0.60;;;22.70;67.60;;;;;;5033985;28;20051;-85
2021/04/11 12:59:50;;;;;;;1.38;0.50;;;22.60;67.40;;;;;;5016097;28;20439;-87
2021/04/11 13:02:21;;;;;;;1.73;0.55;;;22.00;68.60;;;;;;5016006;28;20079;-86
2021/04/11 13:04:56;;;;;;;2.67;0.80;;;21.40;70.40;;;;;;5033706;28;20021;-85
2021/04/11 13:07:50;;;;;;;3.33;0.80;;;20.60;70.40;;;;;;5015955;28;20034;-87
2021/04/11 13:10:28;;;;;;;1.50;0.60;;;21.30;71.50;;;;;;5015883;28;20029;-86
2021/04/11 13:13:08;;;;;;;2.97;1.20;;;20.70;71.50;;;;;;5033510;28;20546;-84
2021/04/11 13:15:50;;;;;;;3.55;0.70;;;20.10;72.00;;;;;;5015871;28;20045;-87
2021/04/11 13:18:31;;;;;;;1.27;0.57;;;20.00;72.70;;;;;;5033486;28;20101;-85
2021/04/11 13:21:21;;;;;;;2.30;0.75;;;19.90;72.70;;;;;;5015823;28;20026;-86
2021/04/11 13:24:01;;;;;;;3.17;0.82;;;19.90;72.80;;;;;;5015781;28;20028;-87
2021/04/11 13:26:33;;;;;;;1.70;0.60;;;19.60;74.00;;;;;;5015714;28;20049;-87
2021/04/11 13:29:20;;;;;;;1.42;0.63;;;19.30;75.20;;;;;;5033366;28;20027;-86
2021/04/11 13:32:05;;;;;;;3.95;0.70;;;19.20;75.30;;;;;;5019350;28;20033;-88
2021/04/11 13:34:36;;;;;;;1.95;0.60;;;19.50;74.80;;;;;;5019873;28;20056;-88
2021/04/11 13:37:11;;;;;;;2.53;1.40;;;20.10;72.20;;;;;;5037381;28;20037;-87
2021/04/11 13:39:41;;;;;;;1.80;0.60;;;19.80;73.80;;;;;;5046787;28;20037;-88
2021/04/11 13:42:28;;;;;;;2.08;0.60;;;19.40;73.40;;;;;;5057338;28;20017;-87
2021/04/11 13:45:19;;;;;;;1.77;0.52;;;19.20;74.80;;;;;;5055987;28;20070;-87
2021/04/11 13:47:58;;;;;;;4.22;0.70;;;18.90;74.50;;;;;;5056003;28;20025;-86
2021/04/11 13:50:52;;;;;;;2.97;0.90;;;18.90;75.80;;;;;;5055986;28;20079;-87
2021/04/11 13:53:56;;;;;;;1.33;0.65;;;19.00;77.00;;;;;;5055934;28;20049;-86